CWEU

Eureka Airport

Eureka, Canada
METAR CWEU 152000Z 20006KT 15SM -RA SCT018 BKN035 OVC065 04/00 A2964 RMK SC3SC4SC1 SLP040
Observed Flight Rules
Jul-15 @ 20:00 UTC (47 minutes ago) Visual Flight Rules
Wind Visibility Clouds Conditions
200° at 6 knots 15 miles
  • Scattered at 1,800' AGL
  • Broken at 3,500' AGL
  • Overcast at 6,500' AGL
  • Light Rain
Temperatures Readings
Current 4°C / 39°F
Dewpoint 0°C / 32°F
Humidity 75%
Altimeter 29.64" Hg
Pressure 1004 hPa
Elevation 10
METAR CWEU 152000Z 20006KT 15SM -RA SCT018 BKN035 OVC065 04/00 A2964 RMK SC3SC4SC1 SLP040
Observed Flight Rules
Jul-15 @ 20:00 UTC
(47 minutes ago)
VFR
Wind Visibility
200° at 6 knots 15 miles
Clouds
  • Scattered at 1,800' AGL
  • Broken at 3,500' AGL
  • Overcast at 6,500' AGL
Conditions
  • Light Rain
Temperature Dewpoint
4°C / 39°F 0°C / 32°F
Humidity Altimeter Pressure
75% 29.64" Hg 1004 hPa